Time;durP1;ratioP1;P1;durP2;ratioP2;P2;SDS_P1;SDS_P2;PMS_P1;PMS_P2;Temp;Humidity;BMP_temperature;BMP_pressure;BME280_temperature;BME280_humidity;BME280_pressure;Samples;Min_cycle;Max_cycle;Signal;HPM_P1;HPM_P2
2023/07/07 00:00:04;;;;;;;;;;;;;;;25.31;70.40;99285.81;349779;28;910;-78
2023/07/07 00:00:15;;;;;;;;;;;;;;;25.31;70.07;99280.44;348798;28;1215;-78
2023/07/07 00:00:25;;;;;;;;;;;;;;;25.31;70.22;99282.28;352865;28;1351;-78
2023/07/07 00:00:35;;;;;;;;;;;;;;;25.33;70.29;99285.63;351106;28;989;-77
2023/07/07 00:00:51;;;;;;;;;;;;;;;25.32;70.03;99284.81;347515;28;1714;-78
2023/07/07 00:01:02;;;;;;;;;;;;;;;25.31;70.18;99280.44;350175;28;1342;-78
2023/07/07 00:01:12;;;;;;;;;;;;;;;25.32;70.34;99279.44;350118;28;1325;-78
2023/07/07 00:01:23;;;;;;;;;;;;;;;25.32;70.37;99276.75;350435;28;886;-78
2023/07/07 00:01:33;;;;;;;;;;;;;;;25.32;70.20;99282.13;351693;28;815;-79
2023/07/07 00:01:43;;;;;;;;;;;;;;;25.33;70.34;99283.78;348902;28;780;-77
2023/07/07 00:01:53;;;;;;;;;;;;;;;25.32;70.21;99284.81;350219;28;1300;-78
2023/07/07 00:02:04;;;;;;;;;;;;;;;25.33;70.10;99275.75;350040;28;1377;-78
2023/07/07 00:02:15;;;;;;;;;;;;;;;25.32;70.31;99282.13;350232;28;1316;-78
2023/07/07 00:02:25;;;;;;;;;;;;;;;25.32;70.43;99276.75;348879;28;1357;-77
2023/07/07 00:02:35;;;;;;;;;;;;;;;25.32;70.24;99271.41;347835;28;1408;-78
2023/07/07 00:02:45;;;;;;;;;;;;;;;25.31;70.10;99283.13;349956;28;1199;-78
2023/07/07 00:02:56;;;;;;;;;;;;;;;25.31;70.29;99284.97;346117;28;1225;-78
2023/07/07 00:03:06;;;;;;;;;;;;;;;25.29;70.05;99279.78;346219;28;884;-77
2023/07/07 00:03:16;;;;;;;;;;;;;;;25.30;70.23;99273.41;346098;28;879;-77
2023/07/07 00:03:27;;;;;;;;;;;;;;;25.29;70.29;99285.13;346135;28;1243;-78
2023/07/07 00:03:37;;;;;;;;;;;;;;;25.30;70.22;99280.59;348576;28;880;-78
2023/07/07 00:03:47;;;;;;;;;;;;;;;25.29;70.23;99279.78;346872;28;1318;-78
2023/07/07 00:03:57;;;;;;;;;;;;;;;25.29;70.19;99284.28;346501;28;1203;-78
2023/07/07 00:04:08;;;;;;;;;;;;;;;25.29;70.10;99285.13;345745;28;1285;-77
2023/07/07 00:04:19;;;;;;;;;;;;;;;25.29;70.36;99279.78;345913;28;1255;-78
2023/07/07 00:04:30;;;;;;;;;;;;;;;25.30;70.23;99281.44;347967;28;1176;-78
2023/07/07 00:04:40;;;;;;;;;;;;;;;25.30;70.48;99281.44;351519;28;783;-78
2023/07/07 00:04:50;;;;;;;;;;;;;;;25.31;70.23;99277.75;351256;28;1265;-78
2023/07/07 00:05:01;;;;;;;;;;;;;;;25.31;70.23;99283.13;346699;28;1364;-78
2023/07/07 00:05:12;;;;;;;;;;;;;;;25.32;70.29;99281.28;348305;28;882;-78
2023/07/07 00:05:22;;;;;;;;;;;;;;;25.32;70.23;99284.81;344826;28;1297;-78
2023/07/07 00:05:33;;;;;;;;;;;;;;;25.33;70.42;99275.75;346124;28;1313;-78
2023/07/07 00:05:45;;;;;;;;;;;;;;;25.34;70.13;99285.47;346985;28;1340;-78
2023/07/07 00:05:55;;;;;;;;;;;;;;;25.32;70.19;99274.09;347488;28;1238;-78
2023/07/07 00:06:05;;;;;;;;;;;;;;;25.32;70.25;99274.09;342212;28;1424;-78
2023/07/07 00:06:16;;;;;;;;;;;;;;;25.31;70.20;99277.75;340172;28;1377;-78
2023/07/07 00:06:26;;;;;;;;;;;;;;;25.32;70.31;99284.81;338071;29;1362;-78
2023/07/07 00:06:36;;;;;;;;;;;;;;;25.32;70.03;99275.91;341989;28;1332;-77
2023/07/07 00:06:46;;;;;;;;;;;;;;;25.32;70.24;99283.97;340182;28;1529;-78
2023/07/07 00:06:57;;;;;;;;;;;;;;;25.32;70.29;99279.44;338067;29;1334;-78
2023/07/07 00:07:07;;;;;;;;;;;;;;;25.32;70.30;99281.28;342821;28;1339;-77
2023/07/07 00:07:17;;;;;;;;;;;;;;;25.30;70.50;99277.94;344590;28;1123;-79
2023/07/07 00:07:28;;;;;;;;;;;;;;;25.29;70.36;99274.41;343492;28;1225;-77
2023/07/07 00:07:38;;;;;;;;;;;;;;;25.30;70.51;99284.13;342072;28;1347;-77
2023/07/07 00:07:49;;;;;;;;;;;;;;;25.30;70.35;99284.13;343162;28;939;-77
2023/07/07 00:07:59;;;;;;;;;;;;;;;25.30;70.32;99286.81;339304;28;1371;-77
2023/07/07 00:08:11;;;;;;;;;;;;;;;25.31;70.16;99283.13;343461;28;1201;-78
2023/07/07 00:08:21;;;;;;;;;;;;;;;25.32;70.39;99283.97;344099;28;1647;-78
2023/07/07 00:08:31;;;;;;;;;;;;;;;25.31;70.33;99283.13;340930;28;1648;-77
2023/07/07 00:08:41;;;;;;;;;;;;;;;25.31;70.33;99283.13;341987;28;1201;-77
2023/07/07 00:08:52;;;;;;;;;;;;;;;25.32;70.36;99284.81;345223;28;1955;-78
2023/07/07 00:09:03;;;;;;;;;;;;;;;25.32;70.11;99276.75;342596;28;2013;-77
2023/07/07 00:09:13;;;;;;;;;;;;;;;25.32;70.30;99284.81;339325;29;1348;-77
2023/07/07 00:09:24;;;;;;;;;;;;;;;25.32;70.26;99281.28;340574;29;1771;-78
2023/07/07 00:09:35;;;;;;;;;;;;;;;25.31;70.27;99283.13;340579;28;1329;-78
2023/07/07 00:09:45;;;;;;;;;;;;;;;25.33;69.95;99289.16;341838;28;1221;-77
2023/07/07 00:09:55;;;;;;;;;;;;;;;25.33;70.18;99286.47;339576;29;885;-78
2023/07/07 00:10:06;;;;;;;;;;;;;;;25.33;70.41;99291.84;335232;29;1814;-77
2023/07/07 00:10:16;;;;;;;;;;;;;;;25.33;70.29;99278.44;333547;29;2043;-77
2023/07/07 00:10:27;;;;;;;;;;;;;;;25.33;70.47;99283.78;337372;29;1231;-77
2023/07/07 00:10:37;;;;;;;;;;;;;;;25.33;70.24;99282.97;334574;29;2154;-77
2023/07/07 00:10:48;;;;;;;;;;;;;;;25.32;70.16;99284.81;334899;29;2247;-77
2023/07/07 00:10:59;;;;;;;;;;;;;;;25.32;70.15;99279.44;335309;29;1366;-76
2023/07/07 00:11:09;;;;;;;;;;;;;;;25.33;70.25;99282.97;329204;29;1354;-77
2023/07/07 00:11:19;;;;;;;;;;;;;;;25.34;69.92;99277.44;329731;29;2533;-78
2023/07/07 00:11:29;;;;;;;;;;;;;;;25.34;70.20;99280.13;327979;29;1773;-77
2023/07/07 00:11:40;;;;;;;;;;;;;;;25.35;70.31;99291.66;329249;30;1225;-77
2023/07/07 00:11:50;;;;;;;;;;;;;;;25.34;70.21;99288.16;327707;30;1328;-77
2023/07/07 00:12:00;;;;;;;;;;;;;;;25.33;70.22;99288.31;327264;29;1988;-77
2023/07/07 00:12:13;;;;;;;;;;;;;;;25.32;70.25;99284.81;324364;30;1236;-78
2023/07/07 00:12:23;;;;;;;;;;;;;;;25.32;70.51;99276.75;329574;29;2498;-77
2023/07/07 00:12:33;;;;;;;;;;;;;;;25.33;70.20;99291.84;325936;30;2987;-77
2023/07/07 00:12:44;;;;;;;;;;;;;;;25.32;69.97;99283.97;323573;30;2907;-77
2023/07/07 00:12:54;;;;;;;;;;;;;;;25.31;70.22;99288.47;325596;30;1214;-78
2023/07/07 00:13:04;;;;;;;;;;;;;;;25.32;70.23;99284.81;323172;30;4017;-77
2023/07/07 00:13:15;;;;;;;;;;;;;;;25.31;70.26;99288.47;320281;30;3049;-77
2023/07/07 00:13:25;;;;;;;;;;;;;;;25.31;70.10;99283.13;318647;31;798;-77
2023/07/07 00:13:35;;;;;;;;;;;;;;;25.31;70.05;99285.81;318363;30;3227;-77
2023/07/07 00:13:46;;;;;;;;;;;;;;;25.31;70.26;99283.13;319570;30;2398;-78
2023/07/07 00:13:57;;;;;;;;;;;;;;;25.32;69.92;99282.13;317234;31;1262;-77
2023/07/07 00:14:08;;;;;;;;;;;;;;;25.33;69.92;99289.16;317624;31;2047;-78
2023/07/07 00:14:19;;;;;;;;;;;;;;;25.33;70.12;99277.59;316600;30;2284;-78
2023/07/07 00:14:29;;;;;;;;;;;;;;;25.34;69.68;99277.44;313149;31;3075;-77
2023/07/07 00:14:39;;;;;;;;;;;;;;;25.32;70.05;99276.75;311720;31;741;-77
2023/07/07 00:14:50;;;;;;;;;;;;;;;25.32;70.06;99281.28;312965;31;4282;-78
2023/07/07 00:15:00;;;;;;;;;;;;;;;25.33;70.07;99278.44;313491;31;5275;-78
2023/07/07 00:15:10;;;;;;;;;;;;;;;25.32;70.05;99284.81;313997;31;1027;-77
2023/07/07 00:15:21;;;;;;;;;;;;;;;25.32;70.16;99286.63;309183;31;4642;-77
2023/07/07 00:15:32;;;;;;;;;;;;;;;25.32;69.89;99284.81;307362;31;4106;-77
2023/07/07 00:15:45;;;;;;;;;;;;;;;25.32;70.08;99283.97;313626;31;752;-79
2023/07/07 00:15:59;;;;;;;;;;;;;;;25.33;69.92;99285.63;315077;31;1275;-78
2023/07/07 00:16:10;;;;;;;;;;;;;;;25.32;69.85;99276.75;314010;31;1248;-77
2023/07/07 00:16:22;;;;;;;;;;;;;;;25.32;69.85;99284.81;309328;31;2942;-77
2023/07/07 00:16:32;;;;;;;;;;;;;;;25.32;69.77;99276.75;307348;31;3406;-77
2023/07/07 00:16:43;;;;;;;;;;;;;;;25.32;69.94;99283.97;306220;32;1256;-77
2023/07/07 00:17:01;;;;;;;;;;;;;;;25.31;69.97;99280.44;306038;31;4728;-77
2023/07/07 00:17:11;;;;;;;;;;;;;;;25.31;69.84;99282.28;304149;32;1288;-77
2023/07/07 00:17:22;;;;;;;;;;;;;;;25.31;69.78;99279.59;302026;32;7103;-78
2023/07/07 00:17:32;;;;;;;;;;;;;;;25.29;70.18;99290.47;299270;32;7237;-77
2023/07/07 00:17:42;;;;;;;;;;;;;;;25.30;69.93;99280.59;296937;33;1291;-77
2023/07/07 00:17:52;;;;;;;;;;;;;;;25.30;69.92;99283.28;296042;33;6244;-77
2023/07/07 00:18:03;;;;;;;;;;;;;;;25.29;69.95;99286.97;290429;33;5703;-77
2023/07/07 00:18:14;;;;;;;;;;;;;;;25.28;69.98;99280.78;288134;34;4093;-77
2023/07/07 00:18:26;;;;;;;;;;;;;;;25.29;69.99;99278.94;289590;34;896;-77
2023/07/07 00:18:36;;;;;;;;;;;;;;;25.28;69.84;99294.16;288203;34;4544;-77
2023/07/07 00:18:47;;;;;;;;;;;;;;;25.28;69.82;99283.44;288669;34;5496;-77
2023/07/07 00:18:57;;;;;;;;;;;;;;;25.28;69.94;99285.28;288088;34;1569;-77
2023/07/07 00:19:09;;;;;;;;;;;;;;;25.28;69.94;99277.25;286437;34;6755;-77
2023/07/07 00:19:19;;;;;;;;;;;;;;;25.27;69.93;99281.78;281717;34;8758;-77
2023/07/07 00:19:32;;;;;;;;;;;;;;;25.28;69.82;99278.09;279524;35;10819;-77
2023/07/07 00:19:43;;;;;;;;;;;;;;;25.28;69.99;99282.59;279138;35;1375;-77
2023/07/07 00:21:58;;;;;;;;;;;;;;;25.27;69.66;99287.13;2502912;27;20236;-79
2023/07/07 00:22:08;;;;;;;;;;;;;;;25.27;69.62;99281.78;354660;27;808;-78
2023/07/07 00:22:19;;;;;;;;;;;;;;;25.26;69.67;99277.41;354482;27;693;-78
2023/07/07 00:22:31;;;;;;;;;;;;;;;25.25;69.91;99281.09;351726;28;1295;-78
2023/07/07 00:22:41;;;;;;;;;;;;;;;25.25;69.80;99278.41;348717;28;1167;-78
2023/07/07 00:22:51;;;;;;;;;;;;;;;25.24;69.72;99282.09;348893;28;1317;-78
2023/07/07 00:23:02;;;;;;;;;;;;;;;25.23;69.64;99277.75;348710;28;645;-78
2023/07/07 00:23:12;;;;;;;;;;;;;;;25.22;69.69;99281.44;350060;28;1285;-78
2023/07/07 00:23:24;;;;;;;;;;;;;;;25.21;69.77;99274.38;347484;28;1164;-78
2023/07/07 00:23:37;;;;;;;;;;;;;;;25.21;69.49;99282.44;350489;28;1377;-79
2023/07/07 00:23:48;;;;;;;;;;;;;;;25.20;69.78;99280.75;352927;28;1310;-78
2023/07/07 00:23:58;;;;;;;;;;;;;;;25.21;69.76;99279.75;350278;28;1305;-78
2023/07/07 00:24:08;;;;;;;;;;;;;;;25.21;69.76;99271.72;347427;28;1454;-78
2023/07/07 00:24:19;;;;;;;;;;;;;;;25.22;69.55;99278.75;347264;28;1267;-78
2023/07/07 00:24:29;;;;;;;;;;;;;;;25.22;69.74;99278.75;347489;28;860;-78
2023/07/07 00:24:39;;;;;;;;;;;;;;;25.24;69.54;99281.25;346184;28;785;-78
2023/07/07 00:24:49;;;;;;;;;;;;;;;25.23;69.76;99283.09;347371;28;1312;-78
2023/07/07 00:25:01;;;;;;;;;;;;;;;25.23;69.46;99277.75;347357;28;587;-78
2023/07/07 00:25:11;;;;;;;;;;;;;;;25.24;69.57;99282.09;348569;28;1593;-78
2023/07/07 00:25:21;;;;;;;;;;;;;;;25.24;69.59;99281.25;348830;28;1235;-78
2023/07/07 00:25:31;;;;;;;;;;;;;;;25.24;69.44;99284.78;345098;28;1246;-78
2023/07/07 00:25:42;;;;;;;;;;;;;;;25.24;69.59;99286.63;345170;28;1121;-78
2023/07/07 00:26:02;;;;;;;;;;;;;;;25.23;69.45;99291.13;344729;28;1188;-78
2023/07/07 00:26:13;;;;;;;;;;;;;;;25.22;69.52;99286.78;343954;28;1225;-78
2023/07/07 00:26:23;;;;;;;;;;;;;;;25.22;69.64;99284.09;344867;28;837;-78
2023/07/07 00:26:34;;;;;;;;;;;;;;;25.21;69.46;99282.44;344597;28;1742;-78
2023/07/07 00:26:44;;;;;;;;;;;;;;;25.21;69.45;99282.44;341999;28;1302;-78
2023/07/07 00:26:54;;;;;;;;;;;;;;;25.21;69.37;99282.44;340624;29;1216;-78
2023/07/07 00:27:05;;;;;;;;;;;;;;;25.21;69.65;99279.75;343351;28;1237;-78
2023/07/07 00:27:15;;;;;;;;;;;;;;;25.20;69.49;99280.75;343312;28;730;-78
2023/07/07 00:27:25;;;;;;;;;;;;;;;25.22;69.45;99285.94;343292;28;1225;-78
2023/07/07 00:27:36;;;;;;;;;;;;;;;25.21;69.23;99282.44;344802;28;1221;-78
2023/07/07 00:27:46;;;;;;;;;;;;;;;25.20;69.42;99286.94;346741;28;1103;-78
2023/07/07 00:27:56;;;;;;;;;;;;;;;25.22;69.61;99285.94;347662;28;1285;-78
2023/07/07 00:28:07;;;;;;;;;;;;;;;25.20;69.31;99275.38;347556;28;730;-78
2023/07/07 00:28:17;;;;;;;;;;;;;;;25.20;69.19;99276.22;344668;28;1070;-78
2023/07/07 00:28:27;;;;;;;;;;;;;;;25.20;69.11;99280.75;346389;28;1449;-78
2023/07/07 00:28:37;;;;;;;;;;;;;;;25.20;69.23;99283.44;344767;28;1316;-77
2023/07/07 00:28:48;;;;;;;;;;;;;;;25.18;69.22;99288.09;347204;28;1303;-77
2023/07/07 00:28:58;;;;;;;;;;;;;;;25.17;69.12;99281.06;346468;28;1220;-77
2023/07/07 00:29:08;;;;;;;;;;;;;;;25.16;69.25;99285.59;345950;28;1209;-77
2023/07/07 00:29:19;;;;;;;;;;;;;;;25.15;69.04;99283.06;347288;28;1267;-78
2023/07/07 00:29:29;;;;;;;;;;;;;;;25.11;68.88;99273.72;343218;28;1411;-77
2023/07/07 00:29:39;;;;;;;;;;;;;;;25.10;69.27;99280.91;343482;28;1186;-77
2023/07/07 00:29:49;;;;;;;;;;;;;;;25.11;68.98;99279.91;348463;28;1410;-77
2023/07/07 00:30:00;;;;;;;;;;;;;;;25.12;69.21;99283.44;343127;28;1683;-77
2023/07/07 00:30:10;;;;;;;;;;;;;;;25.12;69.13;99278.91;343181;28;1277;-77
2023/07/07 00:30:20;;;;;;;;;;;;;;;25.12;68.86;99281.59;344959;28;801;-77
2023/07/07 00:30:32;;;;;;;;;;;;;;;25.12;69.10;99284.28;346736;28;1373;-78
2023/07/07 00:30:42;;;;;;;;;;;;;;;25.13;68.91;99280.56;346267;28;1285;-78
2023/07/07 00:30:52;;;;;;;;;;;;;;;25.14;68.85;99281.41;346188;28;857;-78
2023/07/07 00:31:03;;;;;;;;;;;;;;;25.14;68.71;99281.41;345437;28;809;-78
2023/07/07 00:31:13;;;;;;;;;;;;;;;25.14;68.78;99282.25;343181;28;1386;-78
2023/07/07 00:31:24;;;;;;;;;;;;;;;25.13;69.00;99282.41;343463;28;774;-78
2023/07/07 00:31:34;;;;;;;;;;;;;;;25.14;68.84;99282.25;342659;28;1322;-78
2023/07/07 00:31:44;;;;;;;;;;;;;;;25.14;68.91;99278.72;344170;28;1374;-78
2023/07/07 00:31:54;;;;;;;;;;;;;;;25.12;68.93;99284.28;345978;28;1231;-78
2023/07/07 00:32:05;;;;;;;;;;;;;;;25.12;68.72;99281.59;344472;28;1700;-78
2023/07/07 00:32:15;;;;;;;;;;;;;;;25.12;69.03;99288.78;341080;28;1438;-78
2023/07/07 00:32:26;;;;;;;;;;;;;;;25.09;69.06;99284.59;344536;28;1863;-78
2023/07/07 00:32:36;;;;;;;;;;;;;;;25.09;69.08;99278.41;344862;28;900;-78
2023/07/07 00:32:46;;;;;;;;;;;;;;;25.07;69.11;99280.41;342646;28;2114;-78
2023/07/07 00:32:56;;;;;;;;;;;;;;;25.06;69.21;99278.72;343370;28;1575;-79
2023/07/07 00:33:07;;;;;;;;;;;;;;;25.05;69.16;99287.75;340682;28;1334;-79
2023/07/07 00:33:17;;;;;;;;;;;;;;;25.06;69.22;99281.41;343334;28;1208;-78
2023/07/07 00:33:27;;;;;;;;;;;;;;;25.06;69.13;99284.09;342363;28;1230;-78
2023/07/07 00:33:37;;;;;;;;;;;;;;;25.07;69.27;99285.75;343531;28;790;-77
2023/07/07 00:33:48;;;;;;;;;;;;;;;25.07;69.26;99280.41;341694;28;1720;-77
2023/07/07 00:33:58;;;;;;;;;;;;;;;25.07;69.30;99289.28;343311;28;1946;-79
2023/07/07 00:34:08;;;;;;;;;;;;;;;25.08;69.18;99276.72;343935;28;900;-78
2023/07/07 00:34:18;;;;;;;;;;;;;;;25.07;69.21;99285.75;338850;29;2848;-78
2023/07/07 00:34:29;;;;;;;;;;;;;;;25.06;69.26;99282.25;338652;29;1671;-78
2023/07/07 00:34:39;;;;;;;;;;;;;;;25.07;69.25;99281.25;336681;29;1203;-79
2023/07/07 00:34:49;;;;;;;;;;;;;;;25.07;69.26;99286.59;335254;29;2410;-77
2023/07/07 00:35:02;;;;;;;;;;;;;;;25.08;69.37;99282.09;336040;29;2277;-78
2023/07/07 00:35:12;;;;;;;;;;;;;;;25.07;69.14;99291.97;336572;29;1582;-78
2023/07/07 00:35:23;;;;;;;;;;;;;;;25.08;68.92;99287.44;336687;29;1194;-79
2023/07/07 00:35:33;;;;;;;;;;;;;;;25.07;69.02;99288.44;336292;29;1258;-77
2023/07/07 00:35:46;;;;;;;;;;;;;;;25.07;68.95;99285.75;336342;29;1912;-77
2023/07/07 00:35:56;;;;;;;;;;;;;;;25.07;69.07;99286.59;331991;29;2177;-77
2023/07/07 00:36:07;;;;;;;;;;;;;;;25.06;69.20;99289.44;329225;30;1364;-78
2023/07/07 00:36:17;;;;;;;;;;;;;;;25.06;69.31;99287.59;331583;29;2659;-79
2023/07/07 00:36:27;;;;;;;;;;;;;;;25.07;69.13;99280.41;330799;29;2807;-79
2023/07/07 00:36:37;;;;;;;;;;;;;;;25.07;69.49;99280.41;330486;29;1364;-77
2023/07/07 00:36:48;;;;;;;;;;;;;;;25.06;69.38;99284.94;328063;29;2831;-79
2023/07/07 00:36:58;;;;;;;;;;;;;;;25.06;69.26;99292.97;329515;29;2837;-77
2023/07/07 00:37:08;;;;;;;;;;;;;;;25.06;69.30;99284.09;329217;30;1299;-78
2023/07/07 00:37:19;;;;;;;;;;;;;;;25.06;69.33;99289.44;331096;29;3014;-77
2023/07/07 00:37:29;;;;;;;;;;;;;;;25.06;69.31;99289.44;330908;29;2290;-77
2023/07/07 00:37:39;;;;;;;;;;;;;;;25.05;69.38;99282.41;332997;29;1102;-77
2023/07/07 00:37:49;;;;;;;;;;;;;;;25.05;69.36;99287.75;324968;30;1623;-77
2023/07/07 00:38:00;;;;;;;;;;;;;;;25.06;69.02;99294.78;324064;30;2325;-77
2023/07/07 00:38:10;;;;;;;;;;;;;;;25.03;69.25;99289.75;322433;30;3127;-78
2023/07/07 00:38:20;;;;;;;;;;;;;;;25.03;69.42;99290.59;320908;30;1213;-78
2023/07/07 00:38:30;;;;;;;;;;;;;;;25.02;69.42;99291.59;321743;30;4247;-77
2023/07/07 00:38:41;;;;;;;;;;;;;;;25.02;69.28;99285.41;319603;30;4233;-77
2023/07/07 00:38:51;;;;;;;;;;;;;;;25.03;69.60;99293.28;320905;30;727;-77
2023/07/07 00:39:01;;;;;;;;;;;;;;;25.03;69.39;99289.75;318626;30;3695;-77
2023/07/07 00:39:12;;;;;;;;;;;;;;;25.03;69.44;99289.75;317981;30;3645;-78
2023/07/07 00:39:22;;;;;;;;;;;;;;;25.02;69.61;99288.94;318722;31;763;-77
2023/07/07 00:39:32;;;;;;;;;;;;;;;25.02;69.46;99291.59;318779;30;4134;-77
2023/07/07 00:39:44;;;;;;;;;;;;;;;25.01;69.35;99297.13;316725;31;2981;-78
2023/07/07 00:39:54;;;;;;;;;;;;;;;25.03;69.24;99289.75;315172;31;1134;-77
2023/07/07 00:40:05;;;;;;;;;;;;;;;25.03;69.50;99289.75;317231;31;2459;-77
2023/07/07 00:40:17;;;;;;;;;;;;;;;25.05;69.08;99282.41;314535;31;3634;-77
2023/07/07 00:40:27;;;;;;;;;;;;;;;25.03;69.48;99287.94;310407;31;5113;-78
2023/07/07 00:40:38;;;;;;;;;;;;;;;25.03;69.41;99287.09;310653;31;815;-78
2023/07/07 00:40:50;;;;;;;;;;;;;;;25.04;69.38;99296.81;309963;31;6075;-78
2023/07/07 00:41:01;;;;;;;;;;;;;;;25.03;69.27;99290.59;309311;31;6250;-78
2023/07/07 00:41:11;;;;;;;;;;;;;;;25.02;69.34;99288.09;307673;31;5823;-78
2023/07/07 00:41:22;;;;;;;;;;;;;;;25.00;69.77;99290.09;305611;32;1090;-78
2023/07/07 00:41:32;;;;;;;;;;;;;;;24.98;69.80;99287.56;300799;32;4977;-78
2023/07/07 00:41:42;;;;;;;;;;;;;;;24.98;69.39;99286.72;300168;32;5706;-78
2023/07/07 00:41:52;;;;;;;;;;;;;;;24.97;69.70;99290.41;301055;32;1314;-78
2023/07/07 00:42:03;;;;;;;;;;;;;;;24.97;69.80;99295.78;300287;32;4396;-78
2023/07/07 00:42:13;;;;;;;;;;;;;;;24.96;69.98;99283.38;294594;33;4515;-78
2023/07/07 00:42:24;;;;;;;;;;;;;;;24.96;69.68;99286.91;291060;34;1226;-78
2023/07/07 00:42:34;;;;;;;;;;;;;;;24.96;69.55;99288.72;290481;33;6057;-79
2023/07/07 00:42:44;;;;;;;;;;;;;;;24.94;69.79;99280.84;287140;34;8911;-78
2023/07/07 00:42:54;;;;;;;;;;;;;;;24.94;69.77;99288.03;286411;34;817;-78
2023/07/07 00:44:50;;;;;;;;;;;;;;;24.93;69.72;99281.84;2499413;27;19923;-78
2023/07/07 00:45:34;;;;;;;;;;;;;;;24.94;69.82;99285.34;353093;28;1559;-78
2023/07/07 00:45:44;;;;;;;;;;;;;;;24.93;69.90;99284.50;345967;28;900;-77
2023/07/07 00:45:55;;;;;;;;;;;;;;;24.94;69.86;99280.00;344418;28;1404;-77
2023/07/07 00:46:05;;;;;;;;;;;;;;;24.92;69.90;99287.34;343241;28;877;-77
2023/07/07 00:46:16;;;;;;;;;;;;;;;24.91;70.04;99280.31;343374;28;900;-77
2023/07/07 00:46:26;;;;;;;;;;;;;;;24.93;70.07;99286.34;343172;28;1299;-77
2023/07/07 00:46:36;;;;;;;;;;;;;;;24.93;69.92;99286.34;342578;28;1396;-77
2023/07/07 00:46:47;;;;;;;;;;;;;;;24.93;69.88;99289.03;344411;28;1019;-77
2023/07/07 00:46:57;;;;;;;;;;;;;;;24.93;69.80;99283.66;345979;28;1281;-77
2023/07/07 00:47:07;;;;;;;;;;;;;;;24.92;70.02;99287.34;346245;28;1023;-78
2023/07/07 00:47:17;;;;;;;;;;;;;;;24.91;70.01;99291.03;347792;28;1287;-78
2023/07/07 00:47:28;;;;;;;;;;;;;;;24.90;70.10;99286.66;345671;28;1603;-77
2023/07/07 00:47:45;;;;;;;;;;;;;;;24.91;70.13;99296.38;344699;28;1419;-78
2023/07/07 00:47:57;;;;;;;;;;;;;;;24.90;69.86;99286.66;344134;28;1145;-77
2023/07/07 00:48:08;;;;;;;;;;;;;;;24.88;69.94;99286.84;345359;28;1383;-77
2023/07/07 00:48:20;;;;;;;;;;;;;;;24.86;70.08;99287.00;344558;28;1354;-77
2023/07/07 00:48:30;;;;;;;;;;;;;;;24.87;70.12;99290.50;344764;28;1273;-78
2023/07/07 00:48:41;;;;;;;;;;;;;;;24.85;69.98;99290.66;346306;28;1384;-78
2023/07/07 00:48:51;;;;;;;;;;;;;;;24.86;70.43;99292.34;349204;28;1810;-78
2023/07/07 00:49:02;;;;;;;;;;;;;;;24.87;70.31;99290.50;348939;28;1326;-78
2023/07/07 00:49:16;;;;;;;;;;;;;;;24.87;69.99;99285.16;347541;28;883;-77
2023/07/07 00:49:27;;;;;;;;;;;;;;;24.88;70.02;99287.66;344575;28;1202;-77
2023/07/07 00:49:37;;;;;;;;;;;;;;;24.90;70.01;99292.03;344559;28;1363;-77
2023/07/07 00:49:48;;;;;;;;;;;;;;;24.90;70.17;99289.34;348703;28;1411;-78
2023/07/07 00:49:58;;;;;;;;;;;;;;;24.90;70.13;99292.03;347875;28;1226;-78
2023/07/07 00:50:08;;;;;;;;;;;;;;;24.88;70.13;99293.03;348008;28;1672;-78
2023/07/07 00:50:19;;;;;;;;;;;;;;;24.88;70.17;99290.34;344658;28;1325;-78
2023/07/07 00:50:30;;;;;;;;;;;;;;;24.88;70.02;99282.31;343393;28;1331;-78
2023/07/07 00:50:42;;;;;;;;;;;;;;;24.88;70.20;99287.66;344466;28;1338;-78
2023/07/07 00:51:22;;;;;;;;;;;;;;;24.88;70.22;99292.19;344641;28;1181;-78
2023/07/07 00:51:33;;;;;;;;;;;;;;;24.87;70.40;99293.19;337873;29;1328;-78
2023/07/07 00:51:44;;;;;;;;;;;;;;;24.88;70.16;99287.66;336588;29;1328;-78
2023/07/07 00:51:56;;;;;;;;;;;;;;;24.90;70.06;99289.34;337169;29;1442;-77
2023/07/07 00:52:06;;;;;;;;;;;;;;;24.90;70.14;99289.34;338904;29;1333;-77
2023/07/07 00:52:17;;;;;;;;;;;;;;;24.90;70.01;99294.69;338159;29;794;-77
2023/07/07 00:52:27;;;;;;;;;;;;;;;24.91;70.22;99291.03;336589;29;1311;-77
2023/07/07 00:52:38;;;;;;;;;;;;;;;24.91;70.12;99297.22;337122;29;1353;-77
2023/07/07 00:52:49;;;;;;;;;;;;;;;24.90;70.13;99289.34;338116;29;1580;-77
2023/07/07 00:52:59;;;;;;;;;;;;;;;24.91;70.28;99294.53;333169;29;798;-78
2023/07/07 00:53:09;;;;;;;;;;;;;;;24.91;69.94;99291.03;332922;29;1563;-77
2023/07/07 00:53:19;;;;;;;;;;;;;;;24.91;70.05;99296.38;335233;29;1562;-78
2023/07/07 00:53:31;;;;;;;;;;;;;;;24.90;70.08;99290.19;332944;29;1220;-78
2023/07/07 00:53:42;;;;;;;;;;;;;;;24.90;69.96;99294.69;335939;29;1226;-78
2023/07/07 00:53:52;;;;;;;;;;;;;;;24.88;70.30;99298.38;335328;29;1333;-78
2023/07/07 00:54:03;;;;;;;;;;;;;;;24.88;70.11;99293.03;335006;29;1363;-78
2023/07/07 00:54:14;;;;;;;;;;;;;;;24.88;70.03;99293.03;332905;29;969;-78
2023/07/07 00:54:26;;;;;;;;;;;;;;;24.90;70.17;99300.06;334227;29;1408;-78
2023/07/07 00:54:36;;;;;;;;;;;;;;;24.90;70.30;99302.75;334920;29;1792;-78
2023/07/07 00:54:47;;;;;;;;;;;;;;;24.91;70.13;99296.38;333964;29;1313;-78
2023/07/07 00:54:57;;;;;;;;;;;;;;;24.90;70.31;99298.22;332752;29;1865;-78
2023/07/07 00:55:08;;;;;;;;;;;;;;;24.88;70.23;99293.03;329752;29;1954;-78
2023/07/07 00:55:30;;;;;;;;;;;;;;;24.90;70.14;99300.91;330807;29;1316;-78
2023/07/07 00:55:44;;;;;;;;;;;;;;;24.91;70.17;99296.38;326621;30;1680;-77
2023/07/07 00:55:56;;;;;;;;;;;;;;;24.90;70.36;99300.06;326722;30;1427;-76
2023/07/07 00:56:13;;;;;;;;;;;;;;;24.88;70.11;99301.06;326679;30;950;-76
2023/07/07 00:56:31;;;;;;;;;;;;;;;24.90;70.08;99300.91;327675;29;2186;-76
2023/07/07 00:56:46;;;;;;;;;;;;;;;24.88;70.12;99303.72;327934;30;2115;-77
2023/07/07 00:56:56;;;;;;;;;;;;;;;24.90;69.97;99300.06;327147;29;2376;-78
2023/07/07 00:57:06;;;;;;;;;;;;;;;24.89;70.03;99299.22;326669;30;2445;-77
2023/07/07 00:57:16;;;;;;;;;;;;;;;24.90;70.22;99300.06;325557;30;1244;-78
2023/07/07 00:57:26;;;;;;;;;;;;;;;24.89;70.12;99299.22;327899;30;2672;-76
2023/07/07 00:57:37;;;;;;;;;;;;;;;24.88;70.15;99301.06;325182;30;2591;-77
2023/07/07 00:57:47;;;;;;;;;;;;;;;24.91;70.04;99296.38;325668;30;1159;-77
2023/07/07 00:57:59;;;;;;;;;;;;;;;24.88;70.41;99309.09;324511;30;1722;-78
2023/07/07 00:58:13;;;;;;;;;;;;;;;24.88;70.09;99303.72;324782;30;1260;-78
2023/07/07 00:58:24;;;;;;;;;;;;;;;24.87;70.41;99296.69;323789;30;2570;-78
2023/07/07 00:58:34;;;;;;;;;;;;;;;24.87;70.16;99302.06;325114;30;2309;-77
2023/07/07 00:58:44;;;;;;;;;;;;;;;24.87;70.34;99307.41;324565;30;1223;-78
2023/07/07 00:58:56;;;;;;;;;;;;;;;24.85;70.21;99301.38;322437;30;2747;-76
2023/07/07 00:59:09;;;;;;;;;;;;;;;24.83;70.47;99298.03;316973;30;3388;-77
2023/07/07 00:59:24;;;;;;;;;;;;;;;24.83;70.38;99303.38;317844;30;3348;-77
2023/07/07 00:59:35;;;;;;;;;;;;;;;24.83;70.27;99298.03;319333;30;3050;-77
2023/07/07 00:59:46;;;;;;;;;;;;;;;24.83;70.26;99306.06;319617;30;1220;-78
2023/07/07 00:59:56;;;;;;;;;;;;;;;24.82;70.17;99300.88;321569;30;3253;-77
2023/07/07 01:00:06;;;;;;;;;;;;;;;24.82;70.62;99299.03;320253;30;2345;-77
2023/07/07 01:00:17;;;;;;;;;;;;;;;24.82;70.54;99306.22;318325;31;1310;-77
2023/07/07 01:00:27;;;;;;;;;;;;;;;24.81;70.41;99301.88;319248;30;2088;-77
2023/07/07 01:00:38;;;;;;;;;;;;;;;24.81;70.34;99301.88;318760;30;2663;-77
2023/07/07 01:00:49;;;;;;;;;;;;;;;24.81;70.38;99302.69;318579;31;798;-77
2023/07/07 01:01:03;;;;;;;;;;;;;;;24.81;70.38;99302.69;316304;31;846;-77
2023/07/07 01:01:17;;;;;;;;;;;;;;;24.82;70.42;99304.38;319512;30;3968;-76
2023/07/07 01:01:27;;;;;;;;;;;;;;;24.82;70.21;99304.38;320390;30;4298;-77
2023/07/07 01:01:37;;;;;;;;;;;;;;;24.83;70.39;99305.22;316600;31;5090;-78
2023/07/07 01:01:49;;;;;;;;;;;;;;;24.80;70.40;99294.81;311704;31;1217;-78
2023/07/07 01:02:00;;;;;;;;;;;;;;;24.79;70.08;99296.66;310673;31;1326;-78
2023/07/07 01:02:15;;;;;;;;;;;;;;;24.79;70.36;99304.69;311403;31;4160;-78
2023/07/07 01:02:25;;;;;;;;;;;;;;;24.80;70.48;99301.03;309642;31;3425;-78
2023/07/07 01:02:35;;;;;;;;;;;;;;;24.79;70.20;99303.84;304416;32;3302;-77
2023/07/07 01:02:51;;;;;;;;;;;;;;;24.78;70.18;99305.69;305389;32;824;-76
2023/07/07 01:03:02;;;;;;;;;;;;;;;24.80;70.07;99306.38;306605;32;824;-78